createdAt,value
2024-02-24T00:01:50.329Z,6.82
2024-02-24T00:04:18.373Z,6.86
2024-02-24T00:06:46.937Z,6.84
2024-02-24T00:09:14.948Z,6.99
2024-02-24T00:11:43.308Z,7.02
2024-02-24T00:14:11.822Z,7.02
2024-02-24T00:16:40.507Z,6.87
2024-02-24T00:19:08.586Z,6.77
2024-02-24T00:21:36.535Z,6.88
2024-02-24T00:24:04.606Z,6.98
2024-02-24T00:26:33.071Z,6.91
2024-02-24T00:29:01.524Z,6.72
2024-02-24T00:31:29.468Z,6.73
2024-02-24T00:33:57.861Z,6.68
2024-02-24T00:36:26.651Z,6.69
2024-02-24T00:38:54.563Z,6.72
2024-02-24T00:41:23.095Z,6.79
2024-02-24T00:43:53.358Z,6.68
2024-02-24T00:46:21.756Z,6.60
2024-02-24T00:48:50.382Z,6.62
2024-02-24T00:51:18.426Z,6.65
2024-02-24T00:53:46.487Z,6.61
2024-02-24T00:56:14.832Z,6.56
2024-02-24T00:58:42.778Z,6.54
2024-02-24T01:01:10.820Z,6.47
2024-02-24T01:03:38.937Z,6.51
2024-02-24T01:06:07.229Z,6.56
2024-02-24T01:08:35.092Z,6.55
2024-02-24T01:11:03.294Z,6.53
2024-02-24T01:13:31.905Z,6.49
2024-02-24T01:15:59.931Z,6.43
2024-02-24T01:18:29.591Z,6.39
2024-02-24T01:20:57.765Z,6.40
2024-02-24T01:23:26.101Z,6.37
2024-02-24T01:25:53.979Z,6.37
2024-02-24T01:28:22.374Z,6.29
2024-02-24T01:30:50.431Z,6.22
2024-02-24T01:33:19.515Z,6.21
2024-02-24T01:35:47.634Z,6.16
2024-02-24T01:38:15.662Z,6.17
2024-02-24T01:40:43.651Z,6.13
2024-02-24T01:43:28.325Z,6.15
2024-02-24T01:45:58.141Z,6.15
2024-02-24T01:48:26.788Z,6.17
2024-02-24T01:50:56.075Z,6.22
2024-02-24T01:53:25.106Z,6.29
2024-02-24T01:55:54.852Z,6.15
2024-02-24T01:58:22.970Z,6.09
2024-02-24T02:00:51.422Z,6.15
2024-02-24T02:03:19.334Z,6.21
2024-02-24T02:05:49.440Z,6.11
2024-02-24T02:08:18.098Z,6.11
2024-02-24T02:10:48.278Z,6.25
2024-02-24T02:13:16.695Z,6.32
2024-02-24T02:15:45.611Z,6.29
2024-02-24T02:18:14.110Z,6.25
2024-02-24T02:20:42.320Z,6.31
2024-02-24T02:23:10.931Z,6.22
2024-02-24T02:25:39.628Z,6.26
2024-02-24T02:28:08.312Z,6.09
2024-02-24T02:30:36.383Z,6.15
2024-02-24T02:33:10.246Z,6.20
2024-02-24T02:35:39.651Z,6.20
2024-02-24T02:38:10.480Z,6.13
2024-02-24T02:40:38.945Z,6.10
2024-02-24T02:43:07.059Z,6.15
2024-02-24T02:45:34.953Z,6.17
2024-02-24T02:48:04.335Z,6.17
2024-02-24T02:50:32.484Z,6.05
2024-02-24T02:53:00.555Z,5.93
2024-02-24T02:55:28.615Z,5.95
2024-02-24T02:57:56.872Z,5.85
2024-02-24T03:00:25.266Z,5.95
2024-02-24T03:02:53.722Z,5.99
2024-02-24T03:05:22.294Z,6.03
2024-02-24T03:07:50.686Z,6.08
2024-02-24T03:10:19.034Z,6.05
2024-02-24T03:12:47.136Z,5.94
2024-02-24T03:15:15.167Z,5.91
2024-02-24T03:17:43.671Z,5.94
2024-02-24T03:20:12.195Z,5.98
2024-02-24T03:22:40.514Z,5.92
2024-02-24T03:25:09.421Z,5.98
2024-02-24T03:27:39.077Z,5.99
2024-02-24T03:30:08.184Z,5.97
2024-02-24T03:32:36.185Z,5.95
2024-02-24T03:35:05.180Z,5.90
2024-02-24T03:37:33.214Z,5.93
2024-02-24T03:40:01.689Z,5.98
2024-02-24T03:42:29.539Z,5.94
2024-02-24T03:44:57.976Z,5.96
2024-02-24T03:47:26.418Z,5.97
2024-02-24T03:49:54.503Z,6.00
2024-02-24T03:52:22.942Z,5.97
2024-02-24T03:54:51.217Z,6.04
2024-02-24T03:57:19.607Z,5.97
2024-02-24T03:59:48.076Z,5.90
2024-02-24T04:02:17.204Z,5.95
2024-02-24T04:04:45.518Z,5.97
2024-02-24T04:07:14.282Z,6.05
2024-02-24T04:09:42.335Z,6.05
2024-02-24T04:12:10.345Z,5.94
2024-02-24T04:14:38.809Z,5.95
2024-02-24T04:17:06.798Z,5.98
2024-02-24T04:19:34.761Z,5.87
2024-02-24T04:22:03.171Z,5.94
2024-02-24T04:24:31.710Z,5.97
2024-02-24T04:27:00.049Z,5.89
2024-02-24T04:29:28.520Z,5.96
2024-02-24T04:31:57.108Z,5.91
2024-02-24T04:34:25.464Z,5.83
2024-02-24T04:36:53.791Z,5.78
2024-02-24T04:39:22.128Z,5.63
2024-02-24T04:41:51.205Z,5.71
2024-02-24T04:44:19.854Z,5.61
2024-02-24T04:46:48.368Z,5.66
2024-02-24T04:49:16.749Z,5.59
2024-02-24T04:51:45.315Z,5.51
2024-02-24T04:54:14.909Z,5.44
2024-02-24T04:56:43.182Z,5.47
2024-02-24T04:59:11.262Z,5.55
2024-02-24T05:01:39.728Z,5.50
2024-02-24T05:04:07.754Z,5.56
2024-02-24T05:06:36.131Z,5.38
2024-02-24T05:09:06.379Z,5.20
2024-02-24T05:11:34.551Z,4.93
2024-02-24T05:14:02.624Z,5.07
2024-02-24T05:16:30.512Z,5.08
2024-02-24T05:18:58.490Z,5.05
2024-02-24T05:21:26.405Z,5.06
2024-02-24T05:23:55.017Z,5.01
2024-02-24T05:26:28.378Z,5.14
2024-02-24T05:28:57.889Z,5.03
2024-02-24T05:31:25.852Z,5.00
2024-02-24T05:33:55.018Z,5.00
2024-02-24T05:36:23.597Z,4.98
2024-02-24T05:38:51.943Z,5.11
2024-02-24T05:41:19.845Z,5.21
2024-02-24T05:43:47.830Z,5.09
2024-02-24T05:46:17.605Z,5.05
2024-02-24T05:48:46.972Z,5.13
2024-02-24T05:51:17.948Z,5.04
2024-02-24T05:53:46.492Z,4.98
2024-02-24T05:56:15.157Z,4.93
2024-02-24T05:58:43.259Z,4.99
2024-02-24T06:01:11.238Z,4.99
2024-02-24T06:03:39.736Z,4.87
2024-02-24T06:06:09.242Z,4.89
2024-02-24T06:08:38.030Z,4.83
2024-02-24T06:11:07.339Z,4.79
2024-02-24T06:13:36.057Z,4.90
2024-02-24T06:16:05.068Z,4.85
2024-02-24T06:18:33.625Z,4.73
2024-02-24T06:21:02.896Z,4.77
2024-02-24T06:23:31.514Z,4.71
2024-02-24T06:25:59.935Z,4.56
2024-02-24T06:28:28.378Z,4.58
2024-02-24T06:30:56.963Z,4.60
2024-02-24T06:33:25.709Z,4.59
2024-02-24T06:35:54.342Z,4.59
2024-02-24T06:38:22.765Z,4.66
2024-02-24T06:40:50.653Z,4.75
2024-02-24T06:43:18.618Z,4.76
2024-02-24T06:45:46.974Z,4.88
2024-02-24T06:48:16.893Z,4.86
2024-02-24T06:50:45.376Z,5.04
2024-02-24T06:53:14.055Z,5.21
2024-02-24T06:55:42.483Z,5.29
2024-02-24T06:58:10.390Z,5.24
2024-02-24T07:00:38.354Z,5.25
2024-02-24T07:03:06.461Z,5.36
2024-02-24T07:05:34.626Z,5.48
2024-02-24T07:08:04.186Z,5.47
2024-02-24T07:10:32.304Z,5.44
2024-02-24T07:13:00.300Z,5.33
2024-02-24T07:15:28.237Z,5.45
2024-02-24T07:17:56.200Z,5.52
2024-02-24T07:20:24.325Z,5.51
2024-02-24T07:22:52.254Z,5.51
2024-02-24T07:25:20.101Z,5.59
2024-02-24T07:27:48.084Z,5.65
2024-02-24T07:30:15.983Z,5.60
2024-02-24T07:32:45.787Z,5.56
2024-02-24T07:35:14.937Z,5.66
2024-02-24T07:37:42.941Z,5.67
2024-02-24T07:40:11.850Z,5.65
2024-02-24T07:42:39.841Z,5.65
2024-02-24T07:45:08.771Z,5.65
2024-02-24T07:47:36.851Z,5.76
2024-02-24T07:50:06.075Z,5.80
2024-02-24T07:52:33.952Z,5.84
2024-02-24T07:55:03.277Z,5.87
2024-02-24T07:57:31.218Z,5.90
2024-02-24T07:59:59.063Z,5.84
2024-02-24T08:02:27.293Z,5.94
2024-02-24T08:04:55.325Z,6.01
2024-02-24T08:07:23.296Z,6.12
2024-02-24T08:09:51.213Z,6.04
2024-02-24T08:12:19.180Z,6.15
2024-02-24T08:14:47.113Z,6.20
2024-02-24T08:17:15.210Z,6.22
2024-02-24T08:19:43.887Z,6.32
2024-02-24T08:22:12.382Z,6.38
2024-02-24T08:24:40.342Z,6.44
2024-02-24T08:27:08.454Z,6.56
2024-02-24T08:29:36.421Z,6.66
2024-02-24T08:32:05.134Z,6.79
2024-02-24T08:34:33.057Z,6.84
2024-02-24T08:37:01.001Z,6.85
2024-02-24T08:39:30.586Z,6.85
2024-02-24T08:42:02.931Z,6.89
2024-02-24T08:44:31.071Z,6.76
2024-02-24T08:46:59.135Z,6.80
2024-02-24T08:49:27.155Z,6.83
2024-02-24T08:51:55.054Z,7.03
2024-02-24T08:54:23.461Z,7.00
2024-02-24T08:56:51.576Z,7.13
2024-02-24T08:59:19.528Z,7.33
2024-02-24T09:01:47.496Z,7.20
2024-02-24T09:04:15.367Z,6.94
2024-02-24T09:06:43.407Z,7.12
2024-02-24T09:09:15.715Z,7.26
2024-02-24T09:11:45.219Z,7.24
2024-02-24T09:14:14.509Z,7.24
2024-02-24T09:16:43.145Z,7.26
2024-02-24T09:19:11.280Z,7.11
2024-02-24T09:21:39.460Z,7.24
2024-02-24T09:24:07.791Z,7.42
2024-02-24T09:26:35.818Z,7.58
2024-02-24T09:29:03.856Z,7.69
2024-02-24T09:31:31.863Z,7.67
2024-02-24T09:33:59.853Z,7.66
2024-02-24T09:36:28.165Z,7.69
2024-02-24T09:38:56.228Z,7.69
2024-02-24T09:41:24.254Z,7.65
2024-02-24T09:43:52.470Z,7.71
2024-02-24T09:46:20.825Z,7.65
2024-02-24T09:48:49.958Z,7.69
2024-02-24T09:51:18.210Z,7.65
2024-02-24T09:53:46.184Z,7.56
2024-02-24T09:56:16.850Z,7.62
2024-02-24T09:58:45.436Z,7.70
2024-02-24T10:01:13.930Z,7.75
2024-02-24T10:03:43.793Z,7.84
2024-02-24T10:06:14.493Z,7.93
2024-02-24T10:08:42.516Z,7.85
2024-02-24T10:11:14.529Z,7.86
2024-02-24T10:13:45.352Z,7.85
2024-02-24T10:16:13.911Z,7.87
2024-02-24T10:18:42.500Z,7.89
2024-02-24T10:21:10.502Z,8.06
2024-02-24T10:23:38.474Z,8.23
2024-02-24T10:26:08.410Z,8.37
2024-02-24T10:28:36.699Z,8.34
2024-02-24T10:31:05.422Z,8.26
2024-02-24T10:33:38.051Z,8.29
2024-02-24T10:36:09.430Z,8.28
2024-02-24T10:38:45.390Z,8.49
2024-02-24T10:41:23.520Z,8.58
2024-02-24T10:44:02.407Z,8.36
2024-02-24T10:46:38.843Z,8.30
2024-02-24T10:49:06.936Z,8.59
2024-02-24T10:51:38.104Z,8.60
2024-02-24T10:54:23.236Z,8.56
2024-02-24T10:57:01.080Z,8.60
2024-02-24T10:59:31.325Z,8.54
2024-02-24T11:02:03.029Z,8.57
2024-02-24T11:04:36.754Z,8.68
2024-02-24T11:07:16.842Z,8.64
2024-02-24T11:09:49.742Z,8.55
2024-02-24T11:12:20.959Z,8.63
2024-02-24T11:14:50.194Z,8.84
2024-02-24T11:17:54.046Z,8.91
2024-02-24T11:20:34.494Z,8.77
2024-02-24T11:23:22.744Z,8.91
2024-02-24T11:26:14.567Z,9.14
2024-02-24T11:28:48.554Z,9.37
2024-02-24T11:31:28.102Z,9.39
2024-02-24T11:34:04.135Z,9.53
2024-02-24T11:36:34.971Z,9.62
2024-02-24T11:39:08.334Z,9.64
2024-02-24T11:41:38.227Z,9.42
2024-02-24T11:44:06.349Z,9.58
2024-02-24T11:46:34.669Z,9.72
2024-02-24T11:49:04.195Z,9.82
2024-02-24T11:51:32.328Z,9.79
2024-02-24T11:54:00.661Z,9.88
2024-02-24T11:56:28.780Z,9.98
2024-02-24T11:58:56.963Z,10.00
2024-02-24T12:01:25.223Z,9.98
2024-02-24T12:03:54.966Z,10.29
2024-02-24T12:06:25.637Z,10.48
2024-02-24T12:08:55.012Z,10.71
2024-02-24T12:11:24.548Z,10.68
2024-02-24T12:13:53.420Z,10.60
2024-02-24T12:16:24.394Z,10.55
2024-02-24T12:18:52.422Z,10.51
2024-02-24T12:21:20.494Z,10.76
2024-02-24T12:23:48.502Z,10.77
2024-02-24T12:26:18.539Z,10.84
2024-02-24T12:28:48.428Z,10.99
2024-02-24T12:31:16.712Z,11.26
2024-02-24T12:33:47.073Z,11.55
2024-02-24T12:36:17.074Z,11.78
2024-02-24T12:38:46.291Z,12.03
2024-02-24T12:41:14.482Z,12.19
2024-02-24T12:43:43.153Z,12.41
2024-02-24T12:46:11.321Z,12.40
2024-02-24T12:48:42.464Z,12.84
2024-02-24T12:51:12.541Z,12.85
2024-02-24T12:53:42.617Z,12.86
2024-02-24T12:56:10.782Z,12.86
2024-02-24T12:58:40.014Z,12.87
2024-02-24T13:01:09.270Z,12.87
2024-02-24T13:03:37.748Z,12.73
2024-02-24T13:06:06.117Z,12.76
2024-02-24T13:08:34.318Z,12.97
2024-02-24T13:11:02.544Z,12.99
2024-02-24T13:13:30.592Z,12.88
2024-02-24T13:15:58.504Z,12.69
2024-02-24T13:18:28.539Z,12.71
2024-02-24T13:20:56.767Z,12.81
2024-02-24T13:23:24.788Z,13.20
2024-02-24T13:25:52.740Z,13.40
2024-02-24T13:28:20.660Z,13.46
2024-02-24T13:30:48.573Z,13.44
2024-02-24T13:33:16.775Z,13.59
2024-02-24T13:35:45.036Z,13.39
2024-02-24T13:38:13.181Z,13.33
2024-02-24T13:40:42.933Z,14.18
2024-02-24T13:43:12.898Z,14.43
2024-02-24T13:45:41.184Z,14.25
2024-02-24T13:48:09.369Z,14.46
2024-02-24T13:50:37.458Z,14.37
2024-02-24T13:53:05.732Z,14.78
2024-02-24T13:55:33.627Z,15.28
2024-02-24T13:58:04.107Z,15.10
2024-02-24T14:00:32.139Z,14.51
2024-02-24T14:03:00.819Z,14.80
2024-02-24T14:05:30.412Z,14.56
2024-02-24T14:07:58.646Z,14.91
2024-02-24T14:10:26.555Z,14.87
2024-02-24T14:12:54.464Z,14.54
2024-02-24T14:15:23.207Z,14.97
2024-02-24T14:17:51.259Z,15.08
2024-02-24T14:20:25.457Z,15.02
2024-02-24T14:22:56.339Z,14.42
2024-02-24T14:25:24.709Z,14.14
2024-02-24T14:27:53.089Z,14.16
2024-02-24T14:30:21.338Z,14.15
2024-02-24T14:32:49.428Z,14.01
2024-02-24T14:35:25.469Z,14.12
2024-02-24T14:37:53.647Z,13.86
2024-02-24T14:40:22.775Z,13.86
2024-02-24T14:42:50.938Z,13.81
2024-02-24T14:45:19.033Z,13.67
2024-02-24T14:47:47.584Z,13.55
2024-02-24T14:50:15.697Z,13.46
2024-02-24T14:52:43.681Z,13.38
2024-02-24T14:55:12.840Z,13.44
2024-02-24T14:57:40.915Z,13.20
2024-02-24T15:00:16.115Z,12.47
2024-02-24T15:02:50.756Z,12.70
2024-02-24T15:05:28.206Z,12.75
2024-02-24T15:07:56.684Z,12.76
2024-02-24T15:10:24.806Z,12.63
2024-02-24T15:12:52.767Z,12.64
2024-02-24T15:15:20.616Z,12.50
2024-02-24T15:17:49.266Z,12.49
2024-02-24T15:20:17.577Z,12.73
2024-02-24T15:22:45.612Z,12.68
2024-02-24T15:25:13.501Z,12.76
2024-02-24T15:27:41.426Z,12.73
2024-02-24T15:30:10.971Z,12.52
2024-02-24T15:32:39.350Z,12.27
2024-02-24T15:35:08.232Z,11.76
2024-02-24T15:37:36.426Z,11.79
2024-02-24T15:40:09.054Z,11.83
2024-02-24T15:42:37.247Z,11.71
2024-02-24T15:45:06.041Z,11.51
2024-02-24T15:47:34.020Z,11.49
2024-02-24T15:50:02.530Z,11.31
2024-02-24T15:52:30.444Z,11.12
2024-02-24T15:54:58.788Z,11.09
2024-02-24T15:57:26.606Z,11.03
2024-02-24T15:59:54.677Z,10.93
2024-02-24T16:02:22.692Z,10.87
2024-02-24T16:04:50.980Z,10.78
2024-02-24T16:07:19.083Z,10.66
2024-02-24T16:09:47.115Z,10.65
2024-02-24T16:12:15.091Z,10.58
2024-02-24T16:14:43.146Z,10.49
2024-02-24T16:17:11.433Z,10.36
2024-02-24T16:19:40.412Z,10.28
2024-02-24T16:22:08.344Z,10.19
2024-02-24T16:24:38.261Z,10.10
2024-02-24T16:27:06.275Z,10.03
2024-02-24T16:29:35.208Z,9.99
2024-02-24T16:32:06.162Z,9.89
2024-02-24T16:34:36.490Z,9.83
2024-02-24T16:37:04.875Z,9.74
2024-02-24T16:39:33.563Z,9.66
2024-02-24T16:42:02.183Z,9.62
2024-02-24T16:44:30.373Z,9.66
2024-02-24T16:46:58.429Z,9.61
2024-02-24T16:49:26.320Z,9.60
2024-02-24T16:51:54.662Z,9.50
2024-02-24T16:54:24.097Z,9.40
2024-02-24T16:56:52.076Z,9.47
2024-02-24T16:59:20.079Z,9.46
2024-02-24T17:01:48.617Z,9.42
2024-02-24T17:04:16.912Z,9.36
2024-02-24T17:06:45.135Z,9.29
2024-02-24T17:09:13.161Z,9.29
2024-02-24T17:11:41.882Z,9.29
2024-02-24T17:14:09.958Z,9.23
2024-02-24T17:16:37.999Z,9.17
2024-02-24T17:19:05.988Z,9.10
2024-02-24T17:21:34.085Z,9.03
2024-02-24T17:24:02.077Z,9.02
2024-02-24T17:26:30.186Z,9.00
2024-02-24T17:28:58.880Z,8.97
2024-02-24T17:31:26.953Z,8.94
2024-02-24T17:33:55.011Z,8.88
2024-02-24T17:36:23.166Z,8.87
2024-02-24T17:38:51.105Z,8.87
2024-02-24T17:41:20.050Z,8.86
2024-02-24T17:43:48.264Z,8.79
2024-02-24T17:46:17.322Z,8.75
2024-02-24T17:48:45.477Z,8.71
2024-02-24T17:51:16.001Z,8.69
2024-02-24T17:53:44.267Z,8.63
2024-02-24T17:56:12.192Z,8.58
2024-02-24T17:58:47.123Z,8.58
2024-02-24T18:01:16.530Z,8.58
2024-02-24T18:03:44.568Z,8.48
2024-02-24T18:06:12.696Z,8.41
2024-02-24T18:08:40.626Z,8.35
2024-02-24T18:11:10.811Z,8.31
2024-02-24T18:13:39.309Z,8.29
2024-02-24T18:16:09.625Z,8.31
2024-02-24T18:18:38.935Z,8.29
2024-02-24T18:21:14.389Z,8.23
2024-02-24T18:23:42.390Z,8.19
2024-02-24T18:26:10.359Z,8.23
2024-02-24T18:28:38.294Z,8.21
2024-02-24T18:31:06.519Z,8.17
2024-02-24T18:33:34.485Z,8.16
2024-02-24T18:36:03.882Z,8.16
2024-02-24T18:38:33.005Z,8.17
2024-02-24T18:41:01.206Z,8.18
2024-02-24T18:43:29.142Z,8.17
2024-02-24T18:45:58.553Z,8.10
2024-02-24T18:48:26.770Z,8.10
2024-02-24T18:50:54.921Z,8.03
2024-02-24T18:53:23.523Z,8.00
2024-02-24T18:55:51.458Z,7.97
2024-02-24T18:58:19.293Z,7.92
2024-02-24T19:00:47.545Z,7.91
2024-02-24T19:03:15.624Z,7.91
2024-02-24T19:05:43.770Z,7.91
2024-02-24T19:08:12.092Z,7.86
2024-02-24T19:10:40.034Z,7.86
2024-02-24T19:13:08.220Z,7.80
2024-02-24T19:15:36.169Z,7.80
2024-02-24T19:18:05.424Z,7.70
2024-02-24T19:20:33.401Z,7.69
2024-02-24T19:23:01.576Z,7.72
2024-02-24T19:25:29.538Z,7.68
2024-02-24T19:27:57.495Z,7.63
2024-02-24T19:30:25.574Z,7.64
2024-02-24T19:32:53.597Z,7.66
2024-02-24T19:35:21.601Z,7.62
2024-02-24T19:37:50.044Z,7.68
2024-02-24T19:40:18.044Z,7.64
2024-02-24T19:42:45.998Z,7.59
2024-02-24T19:45:14.592Z,7.52
2024-02-24T19:47:42.796Z,7.54
2024-02-24T19:50:10.974Z,7.48
2024-02-24T19:52:39.135Z,7.43
2024-02-24T19:55:08.445Z,7.43
2024-02-24T19:57:36.677Z,7.34
2024-02-24T20:00:05.562Z,7.33
2024-02-24T20:02:39.003Z,7.36
2024-02-24T20:05:09.188Z,7.38
2024-02-24T20:07:37.934Z,7.37
2024-02-24T20:10:06.407Z,7.33
2024-02-24T20:12:35.732Z,7.30
2024-02-24T20:15:04.311Z,7.34
2024-02-24T20:17:32.486Z,7.39
2024-02-24T20:20:00.953Z,7.34
2024-02-24T20:22:30.204Z,7.34
2024-02-24T20:24:58.044Z,7.34
2024-02-24T20:27:27.595Z,7.34
2024-02-24T20:29:55.576Z,7.38
2024-02-24T20:32:23.762Z,7.39
2024-02-24T20:34:51.922Z,7.30
2024-02-24T20:37:19.805Z,7.26
2024-02-24T20:39:47.701Z,7.27
2024-02-24T20:42:15.943Z,7.28
2024-02-24T20:44:43.850Z,7.27
2024-02-24T20:47:11.750Z,7.29
2024-02-24T20:49:39.740Z,7.29
2024-02-24T20:52:08.555Z,7.16
2024-02-24T20:54:39.635Z,7.12
2024-02-24T20:57:08.327Z,7.17
2024-02-24T20:59:36.372Z,7.24
2024-02-24T21:02:04.709Z,7.24
2024-02-24T21:04:33.213Z,7.18
2024-02-24T21:07:02.770Z,7.19
2024-02-24T21:09:31.606Z,7.16
2024-02-24T21:11:59.786Z,7.15
2024-02-24T21:14:28.378Z,7.14
2024-02-24T21:16:56.679Z,7.11
2024-02-24T21:19:24.666Z,7.10
2024-02-24T21:21:55.671Z,7.02
2024-02-24T21:24:23.748Z,6.94
2024-02-24T21:26:51.783Z,6.86
2024-02-24T21:29:19.873Z,6.91
2024-02-24T21:31:51.684Z,6.80
2024-02-24T21:34:21.730Z,6.80
2024-02-24T21:36:49.713Z,6.77
2024-02-24T21:39:17.570Z,6.76
2024-02-24T21:41:45.562Z,6.75
2024-02-24T21:44:13.902Z,6.80
2024-02-24T21:46:41.782Z,6.76
2024-02-24T21:49:09.996Z,6.70
2024-02-24T21:51:38.483Z,6.69
2024-02-24T21:54:10.280Z,6.69
2024-02-24T21:56:38.741Z,6.70
2024-02-24T21:59:06.664Z,6.68
2024-02-24T22:01:34.665Z,6.64
2024-02-24T22:04:04.510Z,6.63
2024-02-24T22:06:32.727Z,6.63
2024-02-24T22:09:01.008Z,6.61
2024-02-24T22:11:32.884Z,6.55
2024-02-24T22:14:01.400Z,6.56
2024-02-24T22:16:30.005Z,6.56
2024-02-24T22:18:58.192Z,6.52
2024-02-24T22:21:27.912Z,6.48
2024-02-24T22:23:56.325Z,6.46
2024-02-24T22:26:25.433Z,6.46
2024-02-24T22:28:53.805Z,6.41
2024-02-24T22:31:21.926Z,6.36
2024-02-24T22:33:50.748Z,6.39
2024-02-24T22:36:21.073Z,6.37
2024-02-24T22:38:52.984Z,6.34
2024-02-24T22:41:25.280Z,6.26
2024-02-24T22:43:53.342Z,6.22
2024-02-24T22:46:21.780Z,6.28
2024-02-24T22:48:50.182Z,6.33
2024-02-24T22:51:19.371Z,6.38
2024-02-24T22:53:47.320Z,6.37
2024-02-24T22:56:15.316Z,6.33
2024-02-24T22:58:46.644Z,6.28
2024-02-24T23:01:17.897Z,6.24
2024-02-24T23:03:45.893Z,6.21
2024-02-24T23:06:13.992Z,6.24
2024-02-24T23:08:42.126Z,6.25
2024-02-24T23:11:11.559Z,6.22
2024-02-24T23:13:42.462Z,6.23
2024-02-24T23:16:10.341Z,6.19
2024-02-24T23:18:38.382Z,6.16
2024-02-24T23:21:06.740Z,6.14
2024-02-24T23:23:34.864Z,6.14
2024-02-24T23:26:03.335Z,6.17
2024-02-24T23:28:31.263Z,6.15
2024-02-24T23:31:00.104Z,6.12
2024-02-24T23:33:28.127Z,6.07
2024-02-24T23:35:56.369Z,5.99
2024-02-24T23:38:24.385Z,5.93
2024-02-24T23:40:52.321Z,5.90
2024-02-24T23:43:20.248Z,5.87
2024-02-24T23:45:48.445Z,5.85
2024-02-24T23:48:16.430Z,5.85
2024-02-24T23:50:44.709Z,5.87
2024-02-24T23:53:12.686Z,5.90
2024-02-24T23:55:40.551Z,5.89
2024-02-24T23:58:08.709Z,5.90
